sensor_id;sensor_type;location;lat;lon;timestamp;P1;durP1;ratioP1;P2;durP2;ratioP2
69280;SDS011;56392;51.082;17.080;2023-02-07T00:05:04;101.73;;;35.50;;
69280;SDS011;56392;51.082;17.080;2023-02-07T00:10:30;95.85;;;35.15;;
69280;SDS011;56392;51.082;17.080;2023-02-07T00:15:54;110.13;;;35.60;;
69280;SDS011;56392;51.082;17.080;2023-02-07T00:21:18;98.03;;;34.83;;
69280;SDS011;56392;51.082;17.080;2023-02-07T00:26:44;93.00;;;34.15;;
69280;SDS011;56392;51.082;17.080;2023-02-07T00:32:09;89.93;;;31.60;;
69280;SDS011;56392;51.082;17.080;2023-02-07T00:37:32;92.28;;;32.53;;
69280;SDS011;56392;51.082;17.080;2023-02-07T00:42:56;98.50;;;32.90;;
69280;SDS011;56392;51.082;17.080;2023-02-07T00:48:19;92.03;;;33.95;;
69280;SDS011;56392;51.082;17.080;2023-02-07T00:53:43;96.95;;;35.72;;
69280;SDS011;56392;51.082;17.080;2023-02-07T00:59:07;92.87;;;36.07;;
69280;SDS011;56392;51.082;17.080;2023-02-07T01:04:31;93.72;;;35.47;;
69280;SDS011;56392;51.082;17.080;2023-02-07T01:09:54;99.10;;;37.00;;
69280;SDS011;56392;51.082;17.080;2023-02-07T01:15:18;96.25;;;36.00;;
69280;SDS011;56392;51.082;17.080;2023-02-07T01:20:41;93.60;;;35.67;;
69280;SDS011;56392;51.082;17.080;2023-02-07T01:26:04;98.60;;;36.23;;
69280;SDS011;56392;51.082;17.080;2023-02-07T01:31:29;115.97;;;40.72;;
69280;SDS011;56392;51.082;17.080;2023-02-07T01:36:52;119.40;;;42.80;;
69280;SDS011;56392;51.082;17.080;2023-02-07T01:42:16;104.60;;;39.20;;
69280;SDS011;56392;51.082;17.080;2023-02-07T01:47:41;107.65;;;37.72;;
69280;SDS011;56392;51.082;17.080;2023-02-07T01:53:04;100.13;;;37.07;;
69280;SDS011;56392;51.082;17.080;2023-02-07T01:58:28;94.40;;;36.50;;
69280;SDS011;56392;51.082;17.080;2023-02-07T02:03:54;98.70;;;36.30;;
69280;SDS011;56392;51.082;17.080;2023-02-07T02:09:18;97.80;;;35.80;;
69280;SDS011;56392;51.082;17.080;2023-02-07T02:14:46;105.13;;;36.75;;
69280;SDS011;56392;51.082;17.080;2023-02-07T02:20:28;106.63;;;35.83;;
69280;SDS011;56392;51.082;17.080;2023-02-07T02:26:33;102.13;;;35.75;;
69280;SDS011;56392;51.082;17.080;2023-02-07T02:38:12;98.13;;;34.20;;
69280;SDS011;56392;51.082;17.080;2023-02-07T02:43:40;108.13;;;36.83;;
69280;SDS011;56392;51.082;17.080;2023-02-07T02:49:07;98.83;;;35.90;;
69280;SDS011;56392;51.082;17.080;2023-02-07T02:54:33;105.82;;;36.42;;
69280;SDS011;56392;51.082;17.080;2023-02-07T03:00:08;102.67;;;36.80;;
69280;SDS011;56392;51.082;17.080;2023-02-07T03:05:48;100.35;;;35.30;;
69280;SDS011;56392;51.082;17.080;2023-02-07T03:11:20;107.88;;;37.42;;
69280;SDS011;56392;51.082;17.080;2023-02-07T03:16:47;96.67;;;35.90;;
69280;SDS011;56392;51.082;17.080;2023-02-07T03:22:17;105.85;;;35.55;;
69280;SDS011;56392;51.082;17.080;2023-02-07T03:27:41;105.93;;;35.90;;
69280;SDS011;56392;51.082;17.080;2023-02-07T03:33:07;111.13;;;37.22;;
69280;SDS011;56392;51.082;17.080;2023-02-07T03:38:35;110.47;;;36.88;;
69280;SDS011;56392;51.082;17.080;2023-02-07T03:43:59;107.37;;;37.13;;
69280;SDS011;56392;51.082;17.080;2023-02-07T03:49:27;109.22;;;36.78;;
69280;SDS011;56392;51.082;17.080;2023-02-07T03:54:51;108.73;;;38.70;;
69280;SDS011;56392;51.082;17.080;2023-02-07T04:00:14;97.13;;;34.15;;
69280;SDS011;56392;51.082;17.080;2023-02-07T04:05:37;101.18;;;35.25;;
69280;SDS011;56392;51.082;17.080;2023-02-07T04:11:02;114.03;;;37.83;;
69280;SDS011;56392;51.082;17.080;2023-02-07T04:16:26;95.18;;;36.30;;
69280;SDS011;56392;51.082;17.080;2023-02-07T04:21:49;103.00;;;34.83;;
69280;SDS011;56392;51.082;17.080;2023-02-07T04:27:13;102.82;;;37.15;;
69280;SDS011;56392;51.082;17.080;2023-02-07T04:32:37;108.32;;;36.45;;
69280;SDS011;56392;51.082;17.080;2023-02-07T04:38:00;102.60;;;35.30;;
69280;SDS011;56392;51.082;17.080;2023-02-07T04:43:24;101.50;;;37.42;;
69280;SDS011;56392;51.082;17.080;2023-02-07T04:48:47;100.90;;;36.63;;
69280;SDS011;56392;51.082;17.080;2023-02-07T04:54:10;103.45;;;37.30;;
69280;SDS011;56392;51.082;17.080;2023-02-07T04:59:35;103.70;;;37.15;;
69280;SDS011;56392;51.082;17.080;2023-02-07T05:04:58;104.53;;;36.93;;
69280;SDS011;56392;51.082;17.080;2023-02-07T05:10:21;107.40;;;38.55;;
69280;SDS011;56392;51.082;17.080;2023-02-07T05:15:45;97.23;;;34.97;;
69280;SDS011;56392;51.082;17.080;2023-02-07T05:21:08;102.13;;;35.33;;
69280;SDS011;56392;51.082;17.080;2023-02-07T05:26:31;107.32;;;36.72;;
69280;SDS011;56392;51.082;17.080;2023-02-07T05:31:56;107.07;;;34.60;;
69280;SDS011;56392;51.082;17.080;2023-02-07T05:37:36;97.32;;;35.60;;
69280;SDS011;56392;51.082;17.080;2023-02-07T05:42:59;107.40;;;36.73;;
69280;SDS011;56392;51.082;17.080;2023-02-07T05:48:24;108.80;;;36.28;;
69280;SDS011;56392;51.082;17.080;2023-02-07T05:53:47;101.55;;;36.00;;
69280;SDS011;56392;51.082;17.080;2023-02-07T05:59:10;106.57;;;36.23;;
69280;SDS011;56392;51.082;17.080;2023-02-07T06:04:34;105.25;;;36.10;;
69280;SDS011;56392;51.082;17.080;2023-02-07T06:09:57;102.40;;;35.20;;
69280;SDS011;56392;51.082;17.080;2023-02-07T06:15:20;102.80;;;36.13;;
69280;SDS011;56392;51.082;17.080;2023-02-07T06:20:45;96.90;;;36.20;;
69280;SDS011;56392;51.082;17.080;2023-02-07T06:26:08;108.43;;;37.90;;
69280;SDS011;56392;51.082;17.080;2023-02-07T06:31:31;102.00;;;36.28;;
69280;SDS011;56392;51.082;17.080;2023-02-07T06:36:56;107.07;;;36.97;;
69280;SDS011;56392;51.082;17.080;2023-02-07T06:42:19;113.68;;;37.67;;
69280;SDS011;56392;51.082;17.080;2023-02-07T06:47:42;105.55;;;36.90;;
69280;SDS011;56392;51.082;17.080;2023-02-07T06:53:06;105.23;;;37.77;;
69280;SDS011;56392;51.082;17.080;2023-02-07T06:58:29;103.75;;;37.15;;
69280;SDS011;56392;51.082;17.080;2023-02-07T07:03:52;104.77;;;37.67;;
69280;SDS011;56392;51.082;17.080;2023-02-07T07:09:17;117.55;;;38.33;;
69280;SDS011;56392;51.082;17.080;2023-02-07T07:14:40;106.68;;;38.05;;
69280;SDS011;56392;51.082;17.080;2023-02-07T07:20:03;108.33;;;36.83;;
69280;SDS011;56392;51.082;17.080;2023-02-07T07:25:29;112.75;;;38.78;;
69280;SDS011;56392;51.082;17.080;2023-02-07T07:30:52;109.97;;;36.33;;
69280;SDS011;56392;51.082;17.080;2023-02-07T07:36:15;101.00;;;35.55;;
69280;SDS011;56392;51.082;17.080;2023-02-07T07:41:40;106.57;;;37.53;;
69280;SDS011;56392;51.082;17.080;2023-02-07T07:47:03;104.97;;;37.03;;
69280;SDS011;56392;51.082;17.080;2023-02-07T07:52:26;105.07;;;38.20;;
69280;SDS011;56392;51.082;17.080;2023-02-07T07:57:50;113.93;;;39.40;;
69280;SDS011;56392;51.082;17.080;2023-02-07T08:03:14;112.53;;;40.97;;
69280;SDS011;56392;51.082;17.080;2023-02-07T08:08:39;119.25;;;41.08;;
69280;SDS011;56392;51.082;17.080;2023-02-07T08:14:04;115.63;;;42.07;;
69280;SDS011;56392;51.082;17.080;2023-02-07T08:19:27;113.63;;;40.63;;
69280;SDS011;56392;51.082;17.080;2023-02-07T08:24:50;116.90;;;43.97;;
69280;SDS011;56392;51.082;17.080;2023-02-07T08:30:14;115.60;;;41.67;;
69280;SDS011;56392;51.082;17.080;2023-02-07T08:35:39;117.53;;;41.00;;
69280;SDS011;56392;51.082;17.080;2023-02-07T08:41:02;113.20;;;41.33;;
69280;SDS011;56392;51.082;17.080;2023-02-07T08:46:27;116.30;;;40.88;;
69280;SDS011;56392;51.082;17.080;2023-02-07T08:51:50;119.53;;;43.37;;
69280;SDS011;56392;51.082;17.080;2023-02-07T08:57:13;102.22;;;38.17;;
69280;SDS011;56392;51.082;17.080;2023-02-07T09:02:37;77.95;;;30.63;;
69280;SDS011;56392;51.082;17.080;2023-02-07T09:08:01;62.43;;;25.00;;
69280;SDS011;56392;51.082;17.080;2023-02-07T09:13:26;62.22;;;23.80;;
69280;SDS011;56392;51.082;17.080;2023-02-07T09:18:51;51.63;;;20.27;;
69280;SDS011;56392;51.082;17.080;2023-02-07T09:24:14;46.00;;;17.92;;
69280;SDS011;56392;51.082;17.080;2023-02-07T09:29:37;41.40;;;18.45;;
69280;SDS011;56392;51.082;17.080;2023-02-07T09:35:01;45.83;;;18.27;;
69280;SDS011;56392;51.082;17.080;2023-02-07T09:40:25;48.45;;;18.98;;
69280;SDS011;56392;51.082;17.080;2023-02-07T09:45:51;45.35;;;19.80;;
69280;SDS011;56392;51.082;17.080;2023-02-07T09:51:19;42.23;;;17.70;;
69280;SDS011;56392;51.082;17.080;2023-02-07T09:56:44;40.08;;;16.48;;
69280;SDS011;56392;51.082;17.080;2023-02-07T10:02:13;38.50;;;15.33;;
69280;SDS011;56392;51.082;17.080;2023-02-07T10:07:43;33.10;;;13.53;;
69280;SDS011;56392;51.082;17.080;2023-02-07T10:13:20;33.30;;;13.55;;
69280;SDS011;56392;51.082;17.080;2023-02-07T10:18:57;33.40;;;14.77;;
69280;SDS011;56392;51.082;17.080;2023-02-07T10:24:31;35.07;;;13.63;;
69280;SDS011;56392;51.082;17.080;2023-02-07T10:30:10;31.60;;;13.25;;
69280;SDS011;56392;51.082;17.080;2023-02-07T10:35:36;30.77;;;11.40;;
69280;SDS011;56392;51.082;17.080;2023-02-07T10:41:01;29.90;;;10.93;;
69280;SDS011;56392;51.082;17.080;2023-02-07T10:46:30;26.38;;;11.57;;
69280;SDS011;56392;51.082;17.080;2023-02-07T10:51:56;27.90;;;10.97;;
69280;SDS011;56392;51.082;17.080;2023-02-07T10:57:21;30.97;;;12.37;;
69280;SDS011;56392;51.082;17.080;2023-02-07T11:02:46;30.02;;;11.80;;
69280;SDS011;56392;51.082;17.080;2023-02-07T11:08:17;29.33;;;11.57;;
69280;SDS011;56392;51.082;17.080;2023-02-07T11:13:46;24.43;;;9.13;;
69280;SDS011;56392;51.082;17.080;2023-02-07T11:19:14;23.77;;;10.00;;
69280;SDS011;56392;51.082;17.080;2023-02-07T11:24:41;28.83;;;10.80;;
69280;SDS011;56392;51.082;17.080;2023-02-07T11:30:07;26.87;;;10.80;;
69280;SDS011;56392;51.082;17.080;2023-02-07T11:35:36;23.00;;;9.43;;
69280;SDS011;56392;51.082;17.080;2023-02-07T11:41:02;25.95;;;9.80;;
69280;SDS011;56392;51.082;17.080;2023-02-07T11:46:32;30.27;;;12.30;;
69280;SDS011;56392;51.082;17.080;2023-02-07T11:51:59;29.10;;;10.80;;
69280;SDS011;56392;51.082;17.080;2023-02-07T11:57:25;24.15;;;10.38;;
69280;SDS011;56392;51.082;17.080;2023-02-07T12:02:58;22.00;;;9.17;;
69280;SDS011;56392;51.082;17.080;2023-02-07T12:08:24;23.15;;;8.98;;
69280;SDS011;56392;51.082;17.080;2023-02-07T12:13:51;24.55;;;9.43;;
69280;SDS011;56392;51.082;17.080;2023-02-07T12:19:19;23.77;;;9.77;;
69280;SDS011;56392;51.082;17.080;2023-02-07T12:24:47;24.30;;;9.75;;
69280;SDS011;56392;51.082;17.080;2023-02-07T12:30:16;23.60;;;10.10;;
69280;SDS011;56392;51.082;17.080;2023-02-07T12:35:52;26.00;;;9.97;;
69280;SDS011;56392;51.082;17.080;2023-02-07T12:41:21;24.45;;;10.48;;
69280;SDS011;56392;51.082;17.080;2023-02-07T12:46:50;27.00;;;10.85;;
69280;SDS011;56392;51.082;17.080;2023-02-07T12:52:26;26.27;;;10.77;;
69280;SDS011;56392;51.082;17.080;2023-02-07T12:58:02;29.27;;;12.02;;
69280;SDS011;56392;51.082;17.080;2023-02-07T13:03:36;26.60;;;11.32;;
69280;SDS011;56392;51.082;17.080;2023-02-07T13:09:15;27.80;;;12.13;;
69280;SDS011;56392;51.082;17.080;2023-02-07T13:14:52;30.40;;;11.57;;
69280;SDS011;56392;51.082;17.080;2023-02-07T13:20:26;26.83;;;11.18;;
69280;SDS011;56392;51.082;17.080;2023-02-07T13:25:59;24.50;;;10.30;;
69280;SDS011;56392;51.082;17.080;2023-02-07T13:31:28;28.52;;;11.13;;
69280;SDS011;56392;51.082;17.080;2023-02-07T13:36:57;26.75;;;10.45;;
69280;SDS011;56392;51.082;17.080;2023-02-07T13:42:24;23.67;;;10.67;;
69280;SDS011;56392;51.082;17.080;2023-02-07T13:47:56;22.90;;;9.55;;
69280;SDS011;56392;51.082;17.080;2023-02-07T13:53:29;26.40;;;9.82;;
69280;SDS011;56392;51.082;17.080;2023-02-07T13:59:02;25.43;;;10.77;;
69280;SDS011;56392;51.082;17.080;2023-02-07T14:04:47;24.92;;;10.52;;
69280;SDS011;56392;51.082;17.080;2023-02-07T14:10:24;25.33;;;10.82;;
69280;SDS011;56392;51.082;17.080;2023-02-07T14:16:07;26.53;;;10.57;;
69280;SDS011;56392;51.082;17.080;2023-02-07T14:21:39;26.20;;;10.70;;
69280;SDS011;56392;51.082;17.080;2023-02-07T14:27:03;26.92;;;10.70;;
69280;SDS011;56392;51.082;17.080;2023-02-07T14:38:37;25.30;;;10.77;;
69280;SDS011;56392;51.082;17.080;2023-02-07T14:44:02;27.13;;;11.07;;
69280;SDS011;56392;51.082;17.080;2023-02-07T14:49:31;25.00;;;10.48;;
69280;SDS011;56392;51.082;17.080;2023-02-07T14:54:59;27.90;;;10.97;;
69280;SDS011;56392;51.082;17.080;2023-02-07T15:00:27;27.17;;;10.88;;
69280;SDS011;56392;51.082;17.080;2023-02-07T15:05:57;23.90;;;10.27;;
69280;SDS011;56392;51.082;17.080;2023-02-07T15:11:22;22.93;;;10.13;;
69280;SDS011;56392;51.082;17.080;2023-02-07T15:16:47;25.05;;;10.10;;
69280;SDS011;56392;51.082;17.080;2023-02-07T15:22:19;28.60;;;11.13;;
69280;SDS011;56392;51.082;17.080;2023-02-07T15:27:57;26.80;;;11.00;;
69280;SDS011;56392;51.082;17.080;2023-02-07T15:33:21;28.13;;;10.73;;
69280;SDS011;56392;51.082;17.080;2023-02-07T15:38:46;26.83;;;10.82;;
69280;SDS011;56392;51.082;17.080;2023-02-07T15:44:17;25.35;;;11.13;;
69280;SDS011;56392;51.082;17.080;2023-02-07T15:49:41;27.10;;;11.43;;
69280;SDS011;56392;51.082;17.080;2023-02-07T15:55:12;25.55;;;11.00;;
69280;SDS011;56392;51.082;17.080;2023-02-07T16:00:39;30.63;;;11.70;;
69280;SDS011;56392;51.082;17.080;2023-02-07T16:06:05;24.70;;;11.03;;
69280;SDS011;56392;51.082;17.080;2023-02-07T16:11:37;29.10;;;11.55;;
69280;SDS011;56392;51.082;17.080;2023-02-07T16:17:02;26.60;;;11.80;;
69280;SDS011;56392;51.082;17.080;2023-02-07T16:22:26;26.63;;;11.80;;
69280;SDS011;56392;51.082;17.080;2023-02-07T16:27:52;29.52;;;12.55;;
69280;SDS011;56392;51.082;17.080;2023-02-07T16:33:15;28.70;;;12.02;;
69280;SDS011;56392;51.082;17.080;2023-02-07T16:38:39;28.60;;;11.67;;
69280;SDS011;56392;51.082;17.080;2023-02-07T16:44:04;33.13;;;13.07;;
69280;SDS011;56392;51.082;17.080;2023-02-07T16:49:29;28.60;;;11.82;;
69280;SDS011;56392;51.082;17.080;2023-02-07T16:54:53;31.67;;;12.40;;
69280;SDS011;56392;51.082;17.080;2023-02-07T17:00:19;32.50;;;12.38;;
69280;SDS011;56392;51.082;17.080;2023-02-07T17:05:43;29.80;;;12.23;;
69280;SDS011;56392;51.082;17.080;2023-02-07T17:11:06;28.67;;;12.20;;
69280;SDS011;56392;51.082;17.080;2023-02-07T17:16:35;31.60;;;11.93;;
69280;SDS011;56392;51.082;17.080;2023-02-07T17:21:59;30.58;;;12.43;;
69280;SDS011;56392;51.082;17.080;2023-02-07T17:27:22;31.63;;;13.53;;
69280;SDS011;56392;51.082;17.080;2023-02-07T17:32:46;29.88;;;12.65;;
69280;SDS011;56392;51.082;17.080;2023-02-07T17:38:10;32.97;;;12.20;;
69280;SDS011;56392;51.082;17.080;2023-02-07T17:43:35;31.70;;;12.80;;
69280;SDS011;56392;51.082;17.080;2023-02-07T17:49:01;32.10;;;12.75;;
69280;SDS011;56392;51.082;17.080;2023-02-07T17:54:24;28.02;;;11.73;;
69280;SDS011;56392;51.082;17.080;2023-02-07T17:59:47;30.40;;;12.70;;
69280;SDS011;56392;51.082;17.080;2023-02-07T18:05:12;27.73;;;12.50;;
69280;SDS011;56392;51.082;17.080;2023-02-07T18:10:35;32.42;;;12.57;;
69280;SDS011;56392;51.082;17.080;2023-02-07T18:15:58;31.95;;;13.35;;
69280;SDS011;56392;51.082;17.080;2023-02-07T18:21:23;31.73;;;12.73;;
69280;SDS011;56392;51.082;17.080;2023-02-07T18:26:46;28.27;;;13.35;;
69280;SDS011;56392;51.082;17.080;2023-02-07T18:32:09;30.17;;;12.43;;
69280;SDS011;56392;51.082;17.080;2023-02-07T18:37:34;28.23;;;13.03;;
69280;SDS011;56392;51.082;17.080;2023-02-07T18:42:58;33.63;;;13.63;;
69280;SDS011;56392;51.082;17.080;2023-02-07T18:48:21;29.80;;;13.80;;
69280;SDS011;56392;51.082;17.080;2023-02-07T18:53:46;29.57;;;12.47;;
69280;SDS011;56392;51.082;17.080;2023-02-07T18:59:13;28.40;;;12.38;;
69280;SDS011;56392;51.082;17.080;2023-02-07T19:04:38;30.38;;;12.48;;
69280;SDS011;56392;51.082;17.080;2023-02-07T19:10:02;28.73;;;12.60;;
69280;SDS011;56392;51.082;17.080;2023-02-07T19:15:25;26.90;;;11.70;;
69280;SDS011;56392;51.082;17.080;2023-02-07T19:20:49;28.98;;;12.68;;
69280;SDS011;56392;51.082;17.080;2023-02-07T19:26:13;31.13;;;13.00;;
69280;SDS011;56392;51.082;17.080;2023-02-07T19:31:36;27.77;;;11.70;;
69280;SDS011;56392;51.082;17.080;2023-02-07T19:37:01;28.77;;;11.83;;
69280;SDS011;56392;51.082;17.080;2023-02-07T19:42:25;27.77;;;11.33;;
69280;SDS011;56392;51.082;17.080;2023-02-07T19:47:49;26.85;;;10.88;;
69280;SDS011;56392;51.082;17.080;2023-02-07T19:53:12;28.33;;;11.47;;
69280;SDS011;56392;51.082;17.080;2023-02-07T19:58:38;28.50;;;11.60;;
69280;SDS011;56392;51.082;17.080;2023-02-07T20:04:02;28.65;;;12.25;;
69280;SDS011;56392;51.082;17.080;2023-02-07T20:09:26;31.50;;;12.03;;
69280;SDS011;56392;51.082;17.080;2023-02-07T20:14:50;23.77;;;9.87;;
69280;SDS011;56392;51.082;17.080;2023-02-07T20:20:13;27.23;;;10.40;;
69280;SDS011;56392;51.082;17.080;2023-02-07T20:25:38;27.37;;;11.07;;
69280;SDS011;56392;51.082;17.080;2023-02-07T20:31:05;26.50;;;11.23;;
69280;SDS011;56392;51.082;17.080;2023-02-07T20:36:29;25.73;;;10.65;;
69280;SDS011;56392;51.082;17.080;2023-02-07T20:41:53;27.27;;;10.93;;
69280;SDS011;56392;51.082;17.080;2023-02-07T20:47:18;25.80;;;10.77;;
69280;SDS011;56392;51.082;17.080;2023-02-07T20:52:41;23.90;;;10.10;;
69280;SDS011;56392;51.082;17.080;2023-02-07T20:58:04;23.77;;;10.50;;
69280;SDS011;56392;51.082;17.080;2023-02-07T21:03:29;26.20;;;11.20;;
69280;SDS011;56392;51.082;17.080;2023-02-07T21:08:54;23.25;;;8.93;;
69280;SDS011;56392;51.082;17.080;2023-02-07T21:14:21;27.37;;;9.93;;
69280;SDS011;56392;51.082;17.080;2023-02-07T21:19:48;23.08;;;9.77;;
69280;SDS011;56392;51.082;17.080;2023-02-07T21:25:11;23.85;;;10.25;;
69280;SDS011;56392;51.082;17.080;2023-02-07T21:30:34;24.67;;;10.07;;
69280;SDS011;56392;51.082;17.080;2023-02-07T21:36:06;22.10;;;9.68;;
69280;SDS011;56392;51.082;17.080;2023-02-07T21:41:30;23.48;;;9.55;;
69280;SDS011;56392;51.082;17.080;2023-02-07T21:46:53;25.37;;;10.30;;
69280;SDS011;56392;51.082;17.080;2023-02-07T21:52:19;26.00;;;11.00;;
69280;SDS011;56392;51.082;17.080;2023-02-07T21:57:42;26.83;;;10.70;;
69280;SDS011;56392;51.082;17.080;2023-02-07T22:03:05;24.13;;;9.57;;
69280;SDS011;56392;51.082;17.080;2023-02-07T22:08:29;22.98;;;10.00;;
69280;SDS011;56392;51.082;17.080;2023-02-07T22:13:52;26.90;;;10.00;;
69280;SDS011;56392;51.082;17.080;2023-02-07T22:19:16;23.13;;;10.03;;
69280;SDS011;56392;51.082;17.080;2023-02-07T22:24:42;24.33;;;10.05;;
69280;SDS011;56392;51.082;17.080;2023-02-07T22:30:05;24.33;;;9.37;;
69280;SDS011;56392;51.082;17.080;2023-02-07T22:35:33;23.63;;;10.00;;
69280;SDS011;56392;51.082;17.080;2023-02-07T22:41:02;23.15;;;10.15;;
69280;SDS011;56392;51.082;17.080;2023-02-07T22:46:26;24.57;;;9.27;;
69280;SDS011;56392;51.082;17.080;2023-02-07T22:51:49;23.73;;;9.70;;
69280;SDS011;56392;51.082;17.080;2023-02-07T22:57:14;21.00;;;9.00;;
69280;SDS011;56392;51.082;17.080;2023-02-07T23:02:37;21.20;;;8.70;;
69280;SDS011;56392;51.082;17.080;2023-02-07T23:08:00;20.33;;;8.37;;
69280;SDS011;56392;51.082;17.080;2023-02-07T23:13:24;18.88;;;7.70;;
69280;SDS011;56392;51.082;17.080;2023-02-07T23:18:48;21.17;;;8.60;;
69280;SDS011;56392;51.082;17.080;2023-02-07T23:24:12;19.97;;;7.80;;
69280;SDS011;56392;51.082;17.080;2023-02-07T23:29:36;18.05;;;8.00;;
69280;SDS011;56392;51.082;17.080;2023-02-07T23:34:59;22.10;;;9.10;;
69280;SDS011;56392;51.082;17.080;2023-02-07T23:40:22;22.10;;;8.83;;
69280;SDS011;56392;51.082;17.080;2023-02-07T23:45:47;19.67;;;7.90;;
69280;SDS011;56392;51.082;17.080;2023-02-07T23:51:10;22.63;;;9.13;;
69280;SDS011;56392;51.082;17.080;2023-02-07T23:56:34;23.13;;;9.20;;
